ADDS METAR Data INFO
IDs: Format: Raw Decoded Include TAF

Data at: 2010 UTC 19 Oct 2017

KEGE 191956Z 23003KT 10SM CLR 17/M09 A3010 RMK AO2 SLP178 T01671089
KEGE 191856Z 23004KT 10SM CLR 14/M08 A3016 RMK AO2 SLP202 T01441078
KEGE 191756Z 00000KT 10SM CLR 11/M09 A3021 RMK AO2 SLP229 T01061089 10106 21028 58022
KEGE 191656Z 00000KT 10SM CLR 07/M09 A3024 RMK AO2 SLP246 T00671089
KEGE 191556Z 00000KT 10SM CLR 03/M08 A3027 RMK AO2 SLP262 T00331083
KEGE 191456Z 00000KT 10SM CLR 01/M08 A3028 RMK AO2 SLP268 T00061078 53002
KEGE 191356Z 00000KT 10SM CLR M02/M07 A3028 RMK AO2 SLP265 T10221067
KEGE 191256Z 09004KT 10SM CLR M02/M08 A3027 RMK AO2 SLP257 T10221078
KEGE 191156Z AUTO 00000KT 10SM CLR M02/M07 A3028 RMK AO2 SLP240 T10221072 10022 21022 53000 FZRANO
KEGE 191056Z AUTO 00000KT 10SM CLR M02/M08 A3027 RMK AO2 SLP232 T10171078 FZRANO
KEGE 190956Z AUTO 00000KT 10SM CLR M01/M08 A3027 RMK AO2 SLP232 T10111083 FZRANO
KEGE 190856Z AUTO 00000KT 10SM CLR M01/M08 A3027 RMK AO2 SLP234 T10061078 52001 FZRANO
KEGE 190756Z AUTO 09003KT 10SM CLR M01/M07 A3027 RMK AO2 SLP239 T10061072 FZRANO
KEGE 190656Z AUTO 12005KT 10SM CLR 01/M08 A3027 RMK AO2 SLP244 T00061083 FZRANO
KEGE 190556Z AUTO 11003KT 10SM CLR 02/M09 A3027 RMK AO2 SLP252 T00171089 10194 20017 402171044 51006 FZRANO
KEGE 190456Z AUTO 12003KT 10SM CLR 03/M09 A3027 RMK AO2 SLP256 T00281089
KEGE 190356Z AUTO 10003KT 10SM CLR 04/M09 A3026 RMK AO2 SLP257 T00441089
KEGE 190256Z AUTO 14004KT 10SM CLR 07/M09 A3025 RMK AO2 SLP261 T00671089 51011
KEGE 190156Z AUTO 14006KT 10SM CLR 09/M08 A3025 RMK AO2 SLP261 T00941083
KEGE 182356Z 23006KT 10SM CLR 19/M14 A3021 RMK AO2 SLP222 T01941144 10217 20106 55009
KEGE 182256Z 27007KT 10SM CLR 21/M14 A3021 RMK AO2 SLP213 T02111139
KEGE 182156Z 00000KT 10SM CLR 21/M13 A3023 RMK AO2 SLP217 T02111133
KEGE 182056Z VRB03KT 10SM CLR 20/M14 A3025 RMK AO2 SLP223 T02001144 56033
KEGE 181956Z 22004KT 10SM CLR 18/M10 A3028 RMK AO2 SLP241 T01781100
KEGE 181856Z 00000KT 10SM CLR 14/M10 A3033 RMK AO2 SLP262 T01441100
KEGE 181756Z 26003KT 10SM CLR 11/M10 A3036 RMK AO2 SLP281 T01061100 10111 21044 58010
KEGE 181656Z 27004KT 10SM CLR 07/M08 A3038 RMK AO2 SLP291 T00671083
KEGE 181556Z 00000KT 10SM CLR 04/M09 A3039 RMK AO2 SLP299 T00391089
KEGE 181456Z 00000KT 10SM CLR M01/M08 A3040 RMK AO2 SLP310 T10111083 53016
KEGE 181356Z 21004KT 10SM CLR M04/M08 A3037 RMK AO2 SLP297 T10391083
KEGE 181256Z 00000KT 10SM CLR M03/M09 A3034 RMK AO2 SLP273 T10331089
KEGE 181156Z AUTO 09003KT 10SM CLR M04/M08 A3034 RMK AO2 SLP268 T10391083 10022 21039 53006 FZRANO
KEGE 181056Z AUTO 00000KT 10SM CLR M02/M09 A3032 RMK AO2 SLP254 T10221089 FZRANO
KEGE 180956Z AUTO 00000KT 10SM CLR M02/M09 A3031 RMK AO2 SLP246 T10171089 FZRANO
KEGE 180856Z AUTO 00000KT 10SM CLR M01/M08 A3032 RMK AO2 SLP249 T10061083 53003 FZRANO